Time;durP1;ratioP1;P1;durP2;ratioP2;P2;SDS_P1;SDS_P2;PMS_P1;PMS_P2;Temp;Humidity;BMP_temperature;BMP_pressure;BME280_temperature;BME280_humidity;BME280_pressure;Samples;Min_cycle;Max_cycle;Signal;HPM_P1;HPM_P2
2022/08/08 00:01:05;;;;;;;;;;;;;;;19.27;42.71;102176.31;5069026;28;19921;-59
2022/08/08 00:03:57;;;;;;;;;;;;;;;19.25;42.97;102172.91;5076114;28;19920;-58
2022/08/08 00:06:22;;;;;;;;;;;;;;;19.21;43.10;102176.75;5061514;28;19955;-59
2022/08/08 00:08:47;;;;;;;;;;;;;;;19.14;43.05;102171.84;5058485;28;20465;-60
2022/08/08 00:11:15;;;;;;;;;;;;;;;19.12;43.25;102179.13;5065783;28;20015;-59
2022/08/08 00:13:58;;;;;;;;;;;;;;;19.10;43.41;102174.84;5071647;28;20140;-58
2022/08/08 00:16:44;;;;;;;;;;;;;;;19.07;43.47;102175.94;5066142;28;19924;-59
2022/08/08 00:19:10;;;;;;;;;;;;;;;19.01;43.36;102171.88;5070525;28;19920;-58
2022/08/08 00:21:41;;;;;;;;;;;;;;;19.00;43.52;102169.31;5073970;28;19919;-57
2022/08/08 00:24:32;;;;;;;;;;;;;;;19.00;43.61;102164.84;5068985;28;20180;-58
2022/08/08 00:27:11;;;;;;;;;;;;;;;18.98;43.74;102161.44;5056147;28;19947;-58
2022/08/08 00:29:45;;;;;;;;;;;;;;;18.97;43.73;102164.22;5062398;28;19947;-56
2022/08/08 00:32:25;;;;;;;;;;;;;;;18.95;43.87;102164.31;5071110;28;19913;-60
2022/08/08 00:38:01;;;;;;;;;;;;;;;18.89;44.26;102173.56;5067104;28;19919;-57
2022/08/08 00:40:26;;;;;;;;;;;;;;;18.87;44.30;102171.97;5072509;28;19920;-59
2022/08/08 00:42:54;;;;;;;;;;;;;;;18.86;44.42;102167.59;5072465;28;19966;-58
2022/08/08 00:45:26;;;;;;;;;;;;;;;18.84;44.31;102169.53;5060537;28;20570;-58
2022/08/08 00:48:16;;;;;;;;;;;;;;;18.79;44.40;102167.19;5066073;28;19934;-59
2022/08/08 00:51:00;;;;;;;;;;;;;;;18.76;44.51;102169.19;5062179;28;19922;-58
2022/08/08 00:53:44;;;;;;;;;;;;;;;18.75;44.60;102165.69;5048602;28;19931;-57
2022/08/08 00:56:12;;;;;;;;;;;;;;;18.74;44.73;102163.97;5052803;28;19973;-59
2022/08/08 00:58:41;;;;;;;;;;;;;;;18.75;44.50;102168.34;5057177;28;19924;-56
2022/08/08 01:01:27;;;;;;;;;;;;;;;18.71;44.54;102165.06;5063935;28;19916;-59
2022/08/08 01:04:11;;;;;;;;;;;;;;;18.69;44.85;102166.09;5057095;28;20409;-61
2022/08/08 01:07:02;;;;;;;;;;;;;;;18.68;44.84;102165.25;5054713;28;19962;-59
2022/08/08 01:09:46;;;;;;;;;;;;;;;18.66;44.96;102161.00;5042877;28;20202;-62
2022/08/08 01:12:11;;;;;;;;;;;;;;;18.65;45.10;102164.63;5056346;28;19982;-62
2022/08/08 01:14:43;;;;;;;;;;;;;;;18.63;45.12;102163.88;5058012;28;20387;-59
2022/08/08 01:17:32;;;;;;;;;;;;;;;18.61;45.16;102168.47;5058493;28;19992;-62
2022/08/08 01:19:57;;;;;;;;;;;;;;;18.56;45.33;102166.97;5054212;28;19931;-58
2022/08/08 01:22:28;;;;;;;;;;;;;;;18.51;45.41;102174.44;5057552;28;19921;-59
2022/08/08 01:25:07;;;;;;;;;;;;;;;18.46;45.45;102165.91;5056180;28;20098;-55
2022/08/08 01:27:55;;;;;;;;;;;;;;;18.40;45.82;102163.66;5060022;28;19916;-59
2022/08/08 01:30:24;;;;;;;;;;;;;;;18.40;45.85;102151.19;5050886;28;19925;-57
2022/08/08 01:33:01;;;;;;;;;;;;;;;18.38;45.69;102160.22;5067512;28;19923;-56
2022/08/08 01:35:29;;;;;;;;;;;;;;;18.38;45.82;102154.91;5062383;28;19916;-57
2022/08/08 01:37:57;;;;;;;;;;;;;;;18.35;45.90;102157.78;5055896;28;19924;-57
2022/08/08 01:40:28;;;;;;;;;;;;;;;18.36;45.86;102167.50;5060243;28;19928;-57
2022/08/08 01:43:05;;;;;;;;;;;;;;;18.33;45.89;102162.38;5056693;28;20389;-57
2022/08/08 01:45:37;;;;;;;;;;;;;;;18.28;46.11;102166.19;5061663;28;20342;-62
2022/08/08 01:48:31;;;;;;;;;;;;;;;18.25;46.15;102158.41;5062096;28;19970;-61
2022/08/08 01:51:07;;;;;;;;;;;;;;;18.23;46.17;102165.66;5046890;28;19947;-60
2022/08/08 01:53:51;;;;;;;;;;;;;;;18.21;46.31;102159.59;5054220;28;19924;-61
2022/08/08 01:56:21;;;;;;;;;;;;;;;18.18;46.38;102157.13;5058334;28;20842;-60
2022/08/08 01:58:53;;;;;;;;;;;;;;;18.18;46.40;102151.81;5052749;28;21246;-61
2022/08/08 02:01:19;;;;;;;;;;;;;;;18.18;46.42;102154.47;5049465;28;20291;-58
2022/08/08 02:03:47;;;;;;;;;;;;;;;18.17;46.28;102157.22;5055179;28;19924;-60
2022/08/08 02:06:20;;;;;;;;;;;;;;;18.12;46.54;102152.22;5059152;28;20321;-60
2022/08/08 02:08:56;;;;;;;;;;;;;;;18.08;46.52;102153.38;5055841;28;19921;-61
2022/08/08 02:11:29;;;;;;;;;;;;;;;18.06;46.53;102155.31;5056481;28;19925;-60
2022/08/08 02:14:01;;;;;;;;;;;;;;;18.04;46.65;102154.53;5060199;28;19929;-60
2022/08/08 02:16:39;;;;;;;;;;;;;;;18.02;46.64;102156.47;5060909;28;19978;-56
2022/08/08 02:19:18;;;;;;;;;;;;;;;18.02;46.54;102156.47;5057585;28;19925;-59
2022/08/08 02:24:34;;;;;;;;;;;;;;;17.97;46.74;102159.41;5058601;28;19981;-60
2022/08/08 02:27:09;;;;;;;;;;;;;;;17.94;46.85;102159.59;5056765;28;19931;-57
2022/08/08 02:29:37;;;;;;;;;;;;;;;17.92;46.89;102159.69;5062598;28;19989;-57
2022/08/08 02:32:08;;;;;;;;;;;;;;;17.90;46.93;102158.97;5059778;28;19923;-58
2022/08/08 02:34:38;;;;;;;;;;;;;;;17.89;46.98;102161.69;5054973;28;19924;-59
2022/08/08 02:37:28;;;;;;;;;;;;;;;17.85;47.05;102160.22;5058298;28;19916;-60
2022/08/08 02:39:53;;;;;;;;;;;;;;;17.81;47.16;102167.53;5055581;28;19959;-56
2022/08/08 02:42:36;;;;;;;;;;;;;;;17.76;47.22;102164.34;5054990;28;20062;-59
2022/08/08 02:45:02;;;;;;;;;;;;;;;17.69;47.41;102166.56;5056828;28;19966;-56
2022/08/08 02:47:42;;;;;;;;;;;;;;;17.64;47.60;102169.50;5052355;28;19920;-58
2022/08/08 02:50:23;;;;;;;;;;;;;;;17.60;47.65;102168.00;5052860;28;19952;-59
2022/08/08 02:52:58;;;;;;;;;;;;;;;17.57;47.65;102162.00;5053392;28;19963;-57
2022/08/08 02:55:29;;;;;;;;;;;;;;;17.51;47.63;102160.59;5055455;28;20027;-58
2022/08/08 02:57:57;;;;;;;;;;;;;;;17.43;47.74;102157.59;5055862;28;19921;-59
2022/08/08 03:00:41;;;;;;;;;;;;;;;17.43;47.80;102163.75;5056007;28;19927;-59
2022/08/08 03:03:20;;;;;;;;;;;;;;;17.34;47.66;102167.88;5055464;28;19925;-56
2022/08/08 03:05:45;;;;;;;;;;;;;;;17.24;47.84;102155.28;5054314;28;20540;-61
2022/08/08 03:08:26;;;;;;;;;;;;;;;17.21;47.97;102161.63;5056210;28;19921;-57
2022/08/08 03:11:24;;;;;;;;;;;;;;;17.23;48.08;102165.03;5056138;28;19916;-61
2022/08/08 03:14:07;;;;;;;;;;;;;;;17.26;48.03;102162.19;5040281;28;20363;-57
2022/08/08 03:16:32;;;;;;;;;;;;;;;17.31;47.95;102157.44;5061231;28;20006;-57
2022/08/08 03:18:58;;;;;;;;;;;;;;;17.35;48.01;102158.94;5061445;28;19999;-57
2022/08/08 03:21:23;;;;;;;;;;;;;;;17.41;47.88;102168.31;5058391;28;19947;-58
2022/08/08 03:23:48;;;;;;;;;;;;;;;17.44;48.01;102159.31;5072861;28;20283;-58
2022/08/08 03:26:15;;;;;;;;;;;;;;;17.48;47.95;102161.66;5057802;28;20307;-58
2022/08/08 03:28:50;;;;;;;;;;;;;;;17.52;47.87;102162.31;5059569;28;19916;-60
2022/08/08 03:34:04;;;;;;;;;;;;;;;17.57;47.84;102168.19;5058794;28;20311;-58
2022/08/08 03:36:29;;;;;;;;;;;;;;;17.59;47.77;102166.31;5055857;28;19928;-58
2022/08/08 03:38:54;;;;;;;;;;;;;;;17.61;47.79;102174.16;5065312;28;19947;-60
2022/08/08 03:41:20;;;;;;;;;;;;;;;17.60;47.87;102173.34;5053280;28;20303;-60
2022/08/08 03:43:55;;;;;;;;;;;;;;;17.60;48.02;102173.34;5059480;28;20307;-59
2022/08/08 03:46:20;;;;;;;;;;;;;;;17.61;48.06;102175.03;5060687;28;19927;-62
2022/08/08 03:48:55;;;;;;;;;;;;;;;17.62;48.10;102168.72;5063220;28;19920;-62
2022/08/08 03:51:21;;;;;;;;;;;;;;;17.65;48.02;102173.03;5060978;28;19916;-62
2022/08/08 03:53:47;;;;;;;;;;;;;;;17.66;48.08;102177.41;5060832;28;19924;-60
2022/08/08 03:56:13;;;;;;;;;;;;;;;17.66;48.07;102177.41;5059820;28;19958;-60
2022/08/08 03:58:39;;;;;;;;;;;;;;;17.65;48.09;102179.19;5056479;28;19983;-57
2022/08/08 04:01:05;;;;;;;;;;;;;;;17.67;48.06;102181.78;5049379;28;19928;-59
2022/08/08 04:03:34;;;;;;;;;;;;;;;17.67;48.21;102182.59;5057045;28;20379;-57
2022/08/08 04:06:03;;;;;;;;;;;;;;;17.65;48.37;102181.84;5061762;28;19928;-56
2022/08/08 04:08:28;;;;;;;;;;;;;;;17.68;48.24;102186.16;5057853;28;19920;-58
2022/08/08 04:10:54;;;;;;;;;;;;;;;17.69;48.16;102185.19;5060632;28;19970;-57
2022/08/08 04:13:19;;;;;;;;;;;;;;;17.69;48.22;102187.84;5062477;28;19925;-59
2022/08/08 04:15:45;;;;;;;;;;;;;;;17.69;48.29;102190.50;5065788;28;19924;-58
2022/08/08 04:18:10;;;;;;;;;;;;;;;17.68;48.47;102188.81;5068106;28;19983;-59
2022/08/08 04:20:36;;;;;;;;;;;;;;;17.66;48.65;102196.03;5067089;28;19921;-59
2022/08/08 04:23:01;;;;;;;;;;;;;;;17.63;48.64;102202.38;5055962;28;19928;-56
2022/08/08 04:25:27;;;;;;;;;;;;;;;17.60;48.73;102210.59;5055467;28;20009;-59
2022/08/08 04:27:52;;;;;;;;;;;;;;;17.57;48.90;102205.47;5062907;28;19928;-61
2022/08/08 04:30:17;;;;;;;;;;;;;;;17.57;48.97;102202.81;5063866;28;19916;-60
2022/08/08 04:32:43;;;;;;;;;;;;;;;17.58;49.16;102204.50;5052966;28;19920;-57
2022/08/08 04:35:08;;;;;;;;;;;;;;;17.60;49.00;102205.28;5068688;28;19921;-59
2022/08/08 04:37:33;;;;;;;;;;;;;;;17.62;49.23;102211.31;5057456;28;19978;-58
2022/08/08 04:39:59;;;;;;;;;;;;;;;17.62;49.14;102208.66;5059271;28;19997;-57
2022/08/08 04:42:25;;;;;;;;;;;;;;;17.60;49.30;102215.91;5058482;28;20388;-57
2022/08/08 04:44:52;;;;;;;;;;;;;;;17.60;49.36;102215.91;5065705;28;20172;-59
2022/08/08 04:47:18;;;;;;;;;;;;;;;17.57;49.64;102217.91;5066828;28;19993;-58
2022/08/08 04:49:43;;;;;;;;;;;;;;;17.55;49.56;102223.31;5055595;28;19960;-55
2022/08/08 04:52:08;;;;;;;;;;;;;;;17.51;49.65;102221.81;5055433;28;20011;-54
2022/08/08 04:54:34;;;;;;;;;;;;;;;17.51;49.83;102222.69;5056672;28;19929;-59
2022/08/08 04:56:59;;;;;;;;;;;;;;;17.52;50.00;102221.72;5056777;28;19944;-61
2022/08/08 04:59:24;;;;;;;;;;;;;;;17.54;50.04;102224.28;5060619;28;19955;-62
2022/08/08 05:01:50;;;;;;;;;;;;;;;17.58;50.11;102223.13;5054712;28;19927;-57
2022/08/08 05:04:15;;;;;;;;;;;;;;;17.63;50.11;102213.03;5054957;28;20019;-58
2022/08/08 05:06:41;;;;;;;;;;;;;;;17.66;50.21;102226.16;5059553;28;20006;-59
2022/08/08 05:09:06;;;;;;;;;;;;;;;17.70;50.26;102228.63;5060857;28;20327;-58
2022/08/08 05:11:31;;;;;;;;;;;;;;;17.72;50.29;102224.06;5056654;28;19916;-58
2022/08/08 05:13:57;;;;;;;;;;;;;;;17.76;50.28;102230.91;5054926;28;19920;-58
2022/08/08 05:16:22;;;;;;;;;;;;;;;17.78;50.19;102229.84;5055706;28;19927;-55
2022/08/08 05:18:47;;;;;;;;;;;;;;;17.80;50.34;102222.59;5058649;28;19921;-57
2022/08/08 05:21:13;;;;;;;;;;;;;;;17.84;50.40;102228.56;5069177;28;19928;-60
2022/08/08 05:23:39;;;;;;;;;;;;;;;17.88;50.36;102230.09;5056325;28;20499;-56
2022/08/08 05:26:05;;;;;;;;;;;;;;;17.91;50.34;102226.38;5059944;28;19924;-60
2022/08/08 05:28:30;;;;;;;;;;;;;;;17.94;50.53;102235.00;5059911;28;19938;-60
2022/08/08 05:30:55;;;;;;;;;;;;;;;17.97;50.39;102229.50;5057146;28;19959;-61
2022/08/08 05:33:21;;;;;;;;;;;;;;;18.00;50.27;102238.25;5067066;28;19920;-61
2022/08/08 05:35:46;;;;;;;;;;;;;;;17.98;50.23;102227.72;5063991;28;20452;-61
2022/08/08 05:38:16;;;;;;;;;;;;;;;17.98;50.36;102230.38;5063419;28;20003;-61
2022/08/08 05:40:51;;;;;;;;;;;;;;;17.99;50.41;102237.41;5055158;28;19999;-59
2022/08/08 05:43:22;;;;;;;;;;;;;;;18.01;50.39;102238.16;5058123;28;20340;-58
2022/08/08 05:45:48;;;;;;;;;;;;;;;18.02;50.41;102231.03;5060887;28;19982;-61
2022/08/08 05:48:14;;;;;;;;;;;;;;;18.02;50.38;102231.88;5059237;28;19912;-59
2022/08/08 05:50:40;;;;;;;;;;;;;;;18.04;50.39;102235.28;5056627;28;20772;-58
2022/08/08 05:53:06;;;;;;;;;;;;;;;18.06;50.54;102227.22;5055164;28;19925;-60
2022/08/08 05:55:33;;;;;;;;;;;;;;;18.07;50.27;102234.25;5055540;28;19969;-58
2022/08/08 05:57:58;;;;;;;;;;;;;;;18.08;50.49;102234.13;5050867;28;19924;-62
2022/08/08 06:00:26;;;;;;;;;;;;;;;18.09;50.63;102234.97;5063159;28;20362;-61
2022/08/08 06:03:09;;;;;;;;;;;;;;;18.10;50.56;102242.00;5048015;28;19932;-59
2022/08/08 06:05:39;;;;;;;;;;;;;;;18.12;50.35;102248.09;5043253;28;19924;-61
2022/08/08 06:08:06;;;;;;;;;;;;;;;18.12;50.62;102248.09;5046722;28;19924;-59
2022/08/08 06:10:32;;;;;;;;;;;;;;;18.15;50.42;102252.38;5050369;28;20156;-56
2022/08/08 06:12:59;;;;;;;;;;;;;;;18.17;50.38;102256.66;5078602;22;19932;-60
2022/08/08 06:15:25;;;;;;;;;;;;;;;18.18;50.44;102257.50;5066334;28;19928;-58
2022/08/08 06:17:51;;;;;;;;;;;;;;;18.21;50.70;102257.28;5071701;28;19924;-58
2022/08/08 06:20:16;;;;;;;;;;;;;;;18.22;50.53;102259.88;5072078;28;20263;-58
2022/08/08 06:22:42;;;;;;;;;;;;;;;18.23;50.58;102255.38;5079573;28;20290;-59
2022/08/08 06:25:07;;;;;;;;;;;;;;;18.27;50.73;102260.41;5079206;28;19974;-59
2022/08/08 06:27:43;;;;;;;;;;;;;;;18.32;50.77;102253.91;5077396;28;19916;-59
2022/08/08 06:30:10;;;;;;;;;;;;;;;18.34;50.47;102252.84;5083628;28;20062;-58
2022/08/08 06:32:43;;;;;;;;;;;;;;;18.39;50.53;102252.53;5078660;28;19927;-58
2022/08/08 06:35:10;;;;;;;;;;;;;;;18.43;50.49;102248.72;5071515;28;19951;-58
2022/08/08 06:37:37;;;;;;;;;;;;;;;18.49;50.20;102261.66;5077035;28;19958;-58
2022/08/08 06:40:04;;;;;;;;;;;;;;;18.54;50.10;102254.16;5079170;28;20447;-58
2022/08/08 06:42:33;;;;;;;;;;;;;;;18.59;50.14;102257.38;5082048;28;19924;-59
2022/08/08 06:44:59;;;;;;;;;;;;;;;18.66;49.87;102252.50;5070310;28;20298;-58
2022/08/08 06:47:24;;;;;;;;;;;;;;;18.70;49.75;102253.13;5082943;28;19973;-58
2022/08/08 06:49:50;;;;;;;;;;;;;;;18.75;49.74;102251.00;5097237;28;19923;-58
2022/08/08 06:52:16;;;;;;;;;;;;;;;18.81;49.58;102253.25;5087244;28;19916;-59
2022/08/08 06:54:41;;;;;;;;;;;;;;;18.88;49.48;102262.53;5098969;28;20432;-60
2022/08/08 06:57:08;;;;;;;;;;;;;;;18.95;49.55;102256.81;5087460;28;20399;-58
2022/08/08 06:59:35;;;;;;;;;;;;;;;19.02;49.31;102247.41;5098021;28;20066;-61
2022/08/08 07:02:01;;;;;;;;;;;;;;;19.09;49.42;102250.50;5089159;28;19916;-59
2022/08/08 07:04:36;;;;;;;;;;;;;;;19.14;49.20;102251.88;5094073;28;19927;-60
2022/08/08 07:07:07;;;;;;;;;;;;;;;19.22;49.18;102248.66;5087545;28;20390;-61
2022/08/08 07:09:37;;;;;;;;;;;;;;;19.30;48.95;102261.47;5087457;28;20431;-57
2022/08/08 07:12:06;;;;;;;;;;;;;;;19.38;48.79;102252.91;5083782;28;19920;-55
2022/08/08 07:14:54;;;;;;;;;;;;;;;19.44;48.69;102258.66;5089056;28;19916;-65
2022/08/08 07:17:23;;;;;;;;;;;;;;;19.52;48.43;102265.28;5081214;28;19916;-57
2022/08/08 07:19:54;;;;;;;;;;;;;;;19.59;48.47;102255.84;5089652;28;19916;-62
2022/08/08 07:22:26;;;;;;;;;;;;;;;19.66;48.63;102262.47;5090932;28;19916;-56
2022/08/08 07:24:58;;;;;;;;;;;;;;;19.71;48.52;102263.00;5080107;28;19923;-61
2022/08/08 07:27:25;;;;;;;;;;;;;;;19.79;48.21;102267.78;5081848;28;19916;-59
2022/08/08 07:29:51;;;;;;;;;;;;;;;19.85;48.19;102277.16;5090075;28;19923;-58
2022/08/08 07:32:17;;;;;;;;;;;;;;;19.90;47.82;102267.00;5087607;28;19917;-60
2022/08/08 07:34:43;;;;;;;;;;;;;;;19.94;48.05;102271.16;5086426;28;20064;-57
2022/08/08 07:37:09;;;;;;;;;;;;;;;19.99;48.08;102265.47;5096883;28;20011;-56
2022/08/08 07:39:35;;;;;;;;;;;;;;;20.05;47.96;102275.72;5086874;28;20319;-61
2022/08/08 07:42:00;;;;;;;;;;;;;;;20.13;47.96;102265.31;5087839;28;19920;-58
2022/08/08 07:44:27;;;;;;;;;;;;;;;20.21;47.86;102262.06;5085303;28;19990;-59
2022/08/08 07:46:52;;;;;;;;;;;;;;;20.30;47.66;102269.41;5094793;28;19912;-62
2022/08/08 07:49:20;;;;;;;;;;;;;;;20.39;47.83;102270.53;5085344;28;19934;-61
2022/08/08 07:51:45;;;;;;;;;;;;;;;20.45;47.37;102278.06;5088682;28;19958;-58
2022/08/08 07:54:26;;;;;;;;;;;;;;;20.53;47.34;102286.38;5087571;28;20377;-56
2022/08/08 07:57:01;;;;;;;;;;;;;;;20.61;47.29;102285.78;5089254;28;19916;-56
2022/08/08 07:59:32;;;;;;;;;;;;;;;20.68;47.14;102281.66;5086706;28;20405;-61
2022/08/08 08:01:59;;;;;;;;;;;;;;;20.73;46.83;102283.97;5088893;28;19916;-57
2022/08/08 08:04:31;;;;;;;;;;;;;;;20.77;46.89;102285.50;5083919;28;19946;-58
2022/08/08 08:06:57;;;;;;;;;;;;;;;20.81;46.58;102275.41;5090906;28;19916;-59
2022/08/08 08:09:23;;;;;;;;;;;;;;;20.85;46.25;102296.47;5091003;28;19979;-62
2022/08/08 08:11:50;;;;;;;;;;;;;;;20.88;46.31;102275.78;5087945;28;20271;-61
2022/08/08 08:14:22;;;;;;;;;;;;;;;20.92;45.94;102286.13;5086850;28;19924;-58
2022/08/08 08:16:48;;;;;;;;;;;;;;;20.97;45.99;102286.63;5088725;28;19922;-55
2022/08/08 08:19:13;;;;;;;;;;;;;;;21.00;45.74;102291.72;5089900;28;19919;-56
2022/08/08 08:21:40;;;;;;;;;;;;;;;21.05;45.65;102290.53;5092226;28;19961;-58
2022/08/08 08:24:06;;;;;;;;;;;;;;;21.10;45.68;102296.38;5082536;28;19920;-60
2022/08/08 08:26:32;;;;;;;;;;;;;;;21.15;45.56;102297.72;5093250;28;19982;-60
2022/08/08 08:28:57;;;;;;;;;;;;;;;21.23;45.49;102299.78;5085967;28;19912;-58
2022/08/08 08:31:23;;;;;;;;;;;;;;;21.28;45.28;102296.75;5088571;28;19916;-60
2022/08/08 08:33:48;;;;;;;;;;;;;;;21.32;45.08;102290.19;5093503;28;19967;-56
2022/08/08 08:36:14;;;;;;;;;;;;;;;21.36;45.23;102296.97;5088484;28;20562;-57
2022/08/08 08:38:40;;;;;;;;;;;;;;;21.40;45.07;102302.97;5090715;28;20378;-56
2022/08/08 08:41:06;;;;;;;;;;;;;;;21.44;45.20;102293.69;5088098;28;19977;-56
2022/08/08 08:43:33;;;;;;;;;;;;;;;21.48;45.27;102290.66;5089070;28;20385;-59
2022/08/08 08:45:59;;;;;;;;;;;;;;;21.56;44.95;102297.22;5085173;28;19931;-58
2022/08/08 08:48:24;;;;;;;;;;;;;;;21.62;44.80;102296.78;5084481;28;19924;-56
2022/08/08 08:50:50;;;;;;;;;;;;;;;21.70;43.91;102298.84;5091055;28;19920;-60
2022/08/08 08:53:16;;;;;;;;;;;;;;;21.73;43.63;102299.44;5086635;28;20032;-58
2022/08/08 08:55:43;;;;;;;;;;;;;;;21.74;43.31;102292.22;5090016;28;20022;-61
2022/08/08 08:58:16;;;;;;;;;;;;;;;21.76;43.04;102293.84;5084966;28;19916;-59
2022/08/08 09:00:41;;;;;;;;;;;;;;;21.78;43.09;102301.72;5085815;28;19969;-57
2022/08/08 09:03:07;;;;;;;;;;;;;;;21.81;42.70;102293.44;5088380;28;19924;-64
2022/08/08 09:05:36;;;;;;;;;;;;;;;21.83;42.84;102294.19;5084034;28;19924;-57
2022/08/08 09:08:02;;;;;;;;;;;;;;;21.88;42.63;102291.13;5083883;28;19920;-58
2022/08/08 09:10:29;;;;;;;;;;;;;;;21.93;42.37;102292.44;5088016;28;19973;-59
2022/08/08 09:12:55;;;;;;;;;;;;;;;21.95;42.00;102286.94;5089836;28;19924;-63
2022/08/08 09:15:21;;;;;;;;;;;;;;;21.98;41.67;102291.22;5085991;28;19927;-57
2022/08/08 09:17:46;;;;;;;;;;;;;;;21.99;41.68;102282.19;5076212;28;19958;-62
2022/08/08 09:20:12;;;;;;;;;;;;;;;22.03;41.46;102284.50;5082406;28;20371;-61
2022/08/08 09:22:37;;;;;;;;;;;;;;;22.05;41.17;102282.53;5083257;28;19920;-55
2022/08/08 09:25:03;;;;;;;;;;;;;;;22.09;41.24;102288.50;5085665;28;20283;-60
2022/08/08 09:27:29;;;;;;;;;;;;;;;22.10;41.03;102279.47;5086387;28;19916;-55
2022/08/08 09:30:07;;;;;;;;;;;;;;;22.11;40.84;102275.81;5083808;28;19981;-56
2022/08/08 09:32:34;;;;;;;;;;;;;;;22.16;40.99;102278.94;5087357;28;19920;-59
2022/08/08 09:35:01;;;;;;;;;;;;;;;22.25;40.69;102273.81;5084081;28;20858;-57
2022/08/08 09:37:28;;;;;;;;;;;;;;;22.30;40.39;102271.63;5080230;28;20394;-58
2022/08/08 09:40:20;;;;;;;;;;;;;;;22.33;40.63;102272.19;5084671;28;20383;-58
2022/08/08 09:42:49;;;;;;;;;;;;;;;22.36;40.39;102265.72;5086821;28;20271;-63
2022/08/08 09:45:19;;;;;;;;;;;;;;;22.41;40.08;102268.88;5080185;28;20353;-56
2022/08/08 09:47:46;;;;;;;;;;;;;;;22.51;40.06;102267.13;5081236;28;19921;-56
2022/08/08 09:50:13;;;;;;;;;;;;;;;22.60;39.67;102260.13;5081196;28;19920;-58
2022/08/08 09:52:39;;;;;;;;;;;;;;;22.67;39.40;102266.69;5086562;28;19920;-59
2022/08/08 09:55:05;;;;;;;;;;;;;;;22.73;38.87;102259.94;5083959;28;19962;-59
2022/08/08 09:57:34;;;;;;;;;;;;;;;22.78;39.04;102265.75;5087234;28;19963;-59
2022/08/08 10:00:00;;;;;;;;;;;;;;;22.81;39.06;102261.97;5090542;28;19973;-60
2022/08/08 10:02:31;;;;;;;;;;;;;;;22.85;38.91;102263.38;5083567;28;20445;-60
2022/08/08 10:05:04;;;;;;;;;;;;;;;22.90;38.36;102263.00;5088115;28;19916;-59
2022/08/08 10:07:29;;;;;;;;;;;;;;;22.93;38.69;102265.41;5081527;28;19919;-62
2022/08/08 10:09:54;;;;;;;;;;;;;;;22.94;38.71;102259.06;5088889;28;19952;-58
2022/08/08 10:12:29;;;;;;;;;;;;;;;22.98;38.68;102263.19;5080893;28;19920;-60
2022/08/08 10:14:58;;;;;;;;;;;;;;;23.01;38.49;102260.22;5087859;28;20284;-60
2022/08/08 10:17:23;;;;;;;;;;;;;;;23.06;38.44;102266.06;5085546;28;19916;-60
2022/08/08 10:19:52;;;;;;;;;;;;;;;23.10;38.05;102259.41;5086691;28;19918;-60
2022/08/08 10:22:19;;;;;;;;;;;;;;;23.12;38.00;102260.13;5086084;28;19923;-61
2022/08/08 10:24:45;;;;;;;;;;;;;;;23.13;38.04;102256.47;5084762;28;19932;-59
2022/08/08 10:27:12;;;;;;;;;;;;;;;23.18;38.00;102265.97;5076582;28;20287;-62
2022/08/08 10:29:39;;;;;;;;;;;;;;;23.20;37.84;102261.31;5083605;28;19916;-60
2022/08/08 10:34:51;;;;;;;;;;;;;;;23.25;37.36;102257.25;5084481;28;20073;-61
2022/08/08 10:37:35;;;;;;;;;;;;;;;23.25;37.31;102254.56;5079351;28;19920;-59
2022/08/08 10:40:11;;;;;;;;;;;;;;;23.25;37.33;102259.09;5084297;28;19958;-60
2022/08/08 10:42:37;;;;;;;;;;;;;;;23.24;37.24;102254.69;5082175;28;19916;-60
2022/08/08 10:45:07;;;;;;;;;;;;;;;23.25;37.40;102245.66;5080410;28;19954;-57
2022/08/08 10:47:32;;;;;;;;;;;;;;;23.27;37.20;102249.06;5081708;28;19916;-60
2022/08/08 10:49:59;;;;;;;;;;;;;;;23.29;37.30;102255.97;5089131;28;19943;-60
2022/08/08 10:52:32;;;;;;;;;;;;;;;23.38;37.07;102248.94;5087790;28;20002;-61
2022/08/08 10:55:02;;;;;;;;;;;;;;;23.49;37.02;102247.16;5084011;28;19922;-59
2022/08/08 10:57:27;;;;;;;;;;;;;;;23.60;36.96;102252.41;5087966;28;20993;-61
2022/08/08 10:59:52;;;;;;;;;;;;;;;23.71;36.93;102243.38;5081929;28;20026;-59
2022/08/08 11:02:25;;;;;;;;;;;;;;;23.81;37.00;102243.41;5081661;28;19924;-63
2022/08/08 11:04:50;;;;;;;;;;;;;;;23.91;36.92;102238.88;5087253;28;19963;-59
2022/08/08 11:07:29;;;;;;;;;;;;;;;24.03;36.93;102245.84;5083264;28;19966;-58
2022/08/08 11:09:55;;;;;;;;;;;;;;;24.19;36.49;102252.50;5088452;28;19924;-62
2022/08/08 11:12:21;;;;;;;;;;;;;;;24.29;36.37;102245.25;5083591;28;19924;-62
2022/08/08 11:14:50;;;;;;;;;;;;;;;24.35;36.07;102242.00;5085030;28;19920;-60
2022/08/08 11:17:20;;;;;;;;;;;;;;;24.42;36.07;102238.75;5089442;28;20470;-62
2022/08/08 11:19:45;;;;;;;;;;;;;;;24.43;36.04;102243.16;5080917;28;19912;-58
2022/08/08 11:22:13;;;;;;;;;;;;;;;24.43;35.95;102245.84;5079793;28;19940;-59
2022/08/08 11:24:39;;;;;;;;;;;;;;;24.41;35.68;102247.81;5081673;28;20026;-59
2022/08/08 11:27:06;;;;;;;;;;;;;;;24.38;35.46;102246.25;5081598;28;19989;-59
2022/08/08 11:29:32;;;;;;;;;;;;;;;24.35;35.56;102247.38;5076173;28;19965;-62
2022/08/08 11:31:59;;;;;;;;;;;;;;;24.35;35.61;102246.56;5075688;28;19959;-56
2022/08/08 11:34:26;;;;;;;;;;;;;;;24.34;35.67;102251.06;5075262;28;20066;-59
2022/08/08 11:36:54;;;;;;;;;;;;;;;24.35;35.61;102244.69;5078647;28;19962;-60
2022/08/08 11:39:20;;;;;;;;;;;;;;;24.35;35.55;102247.38;5082436;28;20455;-60
2022/08/08 11:41:46;;;;;;;;;;;;;;;24.35;35.44;102252.75;5084612;28;20302;-61
2022/08/08 11:44:13;;;;;;;;;;;;;;;24.35;35.01;102254.63;5085714;28;19992;-61
2022/08/08 11:46:39;;;;;;;;;;;;;;;24.33;35.03;102252.06;5082938;28;20178;-60
2022/08/08 11:49:07;;;;;;;;;;;;;;;24.32;35.03;102253.03;5079168;28;19967;-58
2022/08/08 11:51:34;;;;;;;;;;;;;;;24.31;35.03;102251.34;5080301;28;19937;-60
2022/08/08 11:53:59;;;;;;;;;;;;;;;24.34;35.15;102251.06;5082195;28;19966;-63
2022/08/08 11:56:30;;;;;;;;;;;;;;;24.39;35.15;102249.78;5084166;28;19951;-61
2022/08/08 11:59:04;;;;;;;;;;;;;;;24.43;35.30;102248.53;5089443;28;19920;-59
2022/08/08 12:01:35;;;;;;;;;;;;;;;24.46;35.16;102248.22;5084706;28;20351;-60
2022/08/08 12:04:02;;;;;;;;;;;;;;;24.50;35.15;102255.00;5083278;28;19923;-60
2022/08/08 12:06:27;;;;;;;;;;;;;;;24.53;35.14;102257.41;5085959;28;19928;-58
2022/08/08 12:09:03;;;;;;;;;;;;;;;24.55;34.94;102255.44;5088114;28;19970;-60
2022/08/08 12:11:36;;;;;;;;;;;;;;;24.54;34.98;102250.19;5080980;28;19924;-60
2022/08/08 12:14:04;;;;;;;;;;;;;;;24.54;34.99;102247.50;5085755;28;19926;-59
2022/08/08 12:16:30;;;;;;;;;;;;;;;24.55;34.95;102246.50;5083803;28;20377;-57
2022/08/08 12:18:55;;;;;;;;;;;;;;;24.56;34.88;102249.06;5087211;28;20031;-57
2022/08/08 12:21:25;;;;;;;;;;;;;;;24.58;34.99;102241.66;5084363;28;19916;-60
2022/08/08 12:24:14;;;;;;;;;;;;;;;24.62;34.96;102237.69;5087226;28;19977;-62
2022/08/08 12:26:39;;;;;;;;;;;;;;;24.65;34.97;102242.81;5078028;28;19916;-59
2022/08/08 12:29:28;;;;;;;;;;;;;;;24.68;34.74;102236.25;5085928;28;20010;-61
2022/08/08 12:32:06;;;;;;;;;;;;;;;24.70;34.68;102238.88;5080345;28;19916;-58
2022/08/08 12:34:51;;;;;;;;;;;;;;;24.74;34.74;102238.41;5085359;28;19922;-61
2022/08/08 12:37:28;;;;;;;;;;;;;;;24.80;34.76;102234.28;5084563;28;20353;-57
2022/08/08 12:39:53;;;;;;;;;;;;;;;24.87;34.52;102234.53;5079226;28;19942;-59
2022/08/08 12:42:19;;;;;;;;;;;;;;;24.91;34.38;102234.09;5084749;28;20375;-57
2022/08/08 12:44:44;;;;;;;;;;;;;;;24.96;34.38;102230.97;5085167;28;19924;-61
2022/08/08 12:47:10;;;;;;;;;;;;;;;25.02;34.22;102229.56;5086354;28;19940;-61
2022/08/08 12:49:36;;;;;;;;;;;;;;;25.09;34.33;102222.56;5084555;28;20003;-59
2022/08/08 12:52:02;;;;;;;;;;;;;;;25.17;33.98;102224.50;5082897;28;20019;-60
2022/08/08 12:54:31;;;;;;;;;;;;;;;25.20;33.88;102221.53;5081243;28;19961;-57
2022/08/08 12:56:56;;;;;;;;;;;;;;;25.19;34.06;102228.72;5083659;28;19926;-62
2022/08/08 12:59:23;;;;;;;;;;;;;;;25.17;33.57;102217.28;5083816;28;19916;-61